Time;durP1;ratioP1;P1;durP2;ratioP2;P2;SDS_P1;SDS_P2;PMS_P1;PMS_P2;Temp;Humidity;BMP_temperature;BMP_pressure;BME280_temperature;BME280_humidity;BME280_pressure;Samples;Min_cycle;Max_cycle;Signal;HPM_P1;HPM_P2
2021/11/30 00:00:39;;;;;;;4.68;2.08;;;6.00;99.90;;;;;;4952468;28;20027;-80
2021/11/30 00:03:04;;;;;;;5.63;2.53;;;6.00;99.90;;;;;;4952045;28;20023;-79
2021/11/30 00:05:30;;;;;;;7.10;2.30;;;6.00;99.90;;;;;;4952339;28;20494;-83
2021/11/30 00:07:57;;;;;;;5.40;2.20;;;6.00;99.90;;;;;;4955132;28;20023;-80
2021/11/30 00:13:07;;;;;;;5.32;2.63;;;6.00;99.90;;;;;;4957906;28;20111;-78
2021/11/30 00:15:33;;;;;;;6.32;2.67;;;6.00;99.90;;;;;;4955756;28;20102;-79
2021/11/30 00:17:58;;;;;;;6.47;2.85;;;6.00;99.90;;;;;;4955204;28;20042;-79
2021/11/30 00:20:24;;;;;;;7.60;2.67;;;6.00;99.90;;;;;;4955288;28;20083;-79
2021/11/30 00:22:49;;;;;;;6.35;3.10;;;6.00;99.90;;;;;;4955972;28;20045;-80
2021/11/30 00:25:15;;;;;;;6.88;3.78;;;6.00;99.90;;;;;;4955813;28;20043;-80
2021/11/30 00:27:41;;;;;;;5.97;3.67;;;6.00;99.90;;;;;;4955750;28;20118;-81
2021/11/30 00:30:06;;;;;;;5.57;3.20;;;6.00;99.90;;;;;;4955519;28;20495;-80
2021/11/30 00:32:32;;;;;;;10.77;4.38;;;6.00;99.90;;;;;;4955267;28;20035;-78
2021/11/30 00:34:58;;;;;;;8.75;4.50;;;6.00;99.90;;;;;;4955852;28;20055;-78
2021/11/30 00:37:23;;;;;;;8.90;5.13;;;6.00;99.90;;;;;;4955151;28;20071;-81
2021/11/30 00:39:49;;;;;;;7.80;4.55;;;6.00;99.90;;;;;;4956742;28;20058;-78
2021/11/30 00:42:14;;;;;;;10.60;5.13;;;6.00;99.90;;;;;;4956164;28;20058;-79
2021/11/30 00:44:42;;;;;;;9.30;5.07;;;6.00;99.90;;;;;;4955004;28;20113;-81
2021/11/30 00:47:16;;;;;;;10.18;5.80;;;6.00;99.90;;;;;;4955742;28;20027;-81
2021/11/30 00:49:43;;;;;;;10.57;6.57;;;6.00;99.90;;;;;;4954448;28;20094;-81
2021/11/30 00:52:10;;;;;;;13.93;5.53;;;6.00;99.90;;;;;;4947247;28;20024;-80
2021/11/30 00:54:36;;;;;;;7.82;5.18;;;6.00;99.90;;;;;;4937311;29;20025;-81
2021/11/30 00:57:01;;;;;;;9.48;5.25;;;6.00;99.90;;;;;;4952427;29;20492;-80
2021/11/30 00:59:28;;;;;;;11.23;6.30;;;6.00;99.90;;;;;;4950885;28;20521;-78
2021/11/30 01:01:54;;;;;;;12.18;6.13;;;6.00;99.90;;;;;;4968877;28;20438;-77
2021/11/30 01:04:20;;;;;;;9.25;5.80;;;6.00;99.90;;;;;;4955102;28;20035;-78
2021/11/30 01:06:45;;;;;;;9.93;5.43;;;6.00;99.90;;;;;;4954535;29;20102;-78
2021/11/30 01:09:11;;;;;;;10.05;5.40;;;6.00;99.90;;;;;;4954640;29;20390;-80
2021/11/30 01:11:38;;;;;;;9.27;5.40;;;6.00;99.90;;;;;;4954630;28;20531;-79
2021/11/30 01:14:04;;;;;;;9.38;4.72;;;6.10;99.90;;;;;;4954589;28;20038;-78
2021/11/30 01:16:30;;;;;;;8.95;4.90;;;6.00;99.90;;;;;;4954636;28;20082;-79
2021/11/30 01:18:55;;;;;;;12.00;5.25;;;6.00;99.90;;;;;;4954170;28;20027;-78
2021/11/30 01:21:21;;;;;;;7.72;4.35;;;6.00;99.90;;;;;;4956288;28;20031;-82
2021/11/30 01:23:47;;;;;;;8.18;4.20;;;6.00;99.90;;;;;;4964001;28;20431;-77
2021/11/30 01:26:12;;;;;;;12.77;4.65;;;6.00;99.90;;;;;;4954701;28;20049;-82
2021/11/30 01:28:38;;;;;;;9.15;4.80;;;6.00;99.90;;;;;;4953969;28;20390;-79
2021/11/30 01:31:04;;;;;;;6.55;3.97;;;5.90;99.90;;;;;;4954437;28;20023;-78
2021/11/30 01:33:29;;;;;;;5.97;4.30;;;5.90;99.90;;;;;;4953914;28;20061;-80
2021/11/30 01:35:55;;;;;;;11.65;4.78;;;5.90;99.90;;;;;;4955289;29;20494;-80
2021/11/30 01:38:22;;;;;;;8.75;4.55;;;5.90;99.90;;;;;;4955941;28;20035;-80
2021/11/30 01:40:49;;;;;;;7.57;5.05;;;5.90;99.90;;;;;;4945361;28;20027;-78
2021/11/30 01:43:20;;;;;;;7.15;4.43;;;5.90;99.90;;;;;;4954014;28;20035;-78
2021/11/30 01:45:55;;;;;;;11.10;4.97;;;5.80;99.90;;;;;;4955049;28;20031;-80
2021/11/30 01:50:55;;;;;;;6.03;4.32;;;5.80;99.90;;;;;;4964660;28;20070;-78
2021/11/30 01:53:21;;;;;;;9.60;4.78;;;5.70;99.90;;;;;;4935355;29;20063;-80
2021/11/30 01:55:48;;;;;;;11.77;4.57;;;5.60;99.90;;;;;;4940919;29;20027;-80
2021/11/30 01:58:15;;;;;;;8.65;4.82;;;5.60;99.90;;;;;;4954024;28;20508;-80
2021/11/30 02:00:45;;;;;;;10.13;5.05;;;5.50;99.90;;;;;;4954182;29;20025;-81
2021/11/30 02:03:11;;;;;;;8.52;5.32;;;5.40;99.90;;;;;;4953511;28;20122;-80
2021/11/30 02:05:38;;;;;;;9.60;5.10;;;5.40;99.90;;;;;;4953725;28;20086;-80
2021/11/30 02:08:05;;;;;;;12.23;5.60;;;5.40;99.90;;;;;;4954021;28;20023;-79
2021/11/30 02:10:32;;;;;;;21.15;7.88;;;5.40;99.90;;;;;;4954586;28;20023;-80
2021/11/30 02:12:58;;;;;;;16.88;6.97;;;5.40;99.90;;;;;;4954426;29;20033;-82
2021/11/30 02:15:26;;;;;;;16.98;7.28;;;5.40;99.90;;;;;;4953947;28;20023;-80
2021/11/30 02:17:53;;;;;;;23.75;7.63;;;5.40;99.90;;;;;;4953439;28;20129;-82
2021/11/30 02:20:19;;;;;;;18.80;8.60;;;5.40;99.90;;;;;;4953487;29;20542;-82
2021/11/30 02:22:50;;;;;;;24.77;8.20;;;5.40;99.90;;;;;;4953451;29;20122;-81
2021/11/30 02:25:17;;;;;;;13.48;7.90;;;5.40;99.90;;;;;;4953453;29;20023;-81
2021/11/30 02:27:43;;;;;;;18.67;7.95;;;5.30;99.90;;;;;;4953899;29;20035;-81
2021/11/30 02:30:09;;;;;;;19.65;8.45;;;5.20;99.90;;;;;;4952907;28;20023;-82
2021/11/30 02:32:34;;;;;;;16.88;7.72;;;5.20;99.90;;;;;;4952753;28;20475;-82
2021/11/30 02:35:00;;;;;;;12.15;6.53;;;5.20;99.90;;;;;;4953666;29;20083;-81
2021/11/30 02:37:28;;;;;;;18.60;7.65;;;5.20;99.90;;;;;;4953790;28;20039;-80
2021/11/30 02:39:54;;;;;;;10.82;6.88;;;5.10;99.90;;;;;;4953429;28;20110;-81
2021/11/30 02:42:20;;;;;;;18.20;7.10;;;5.10;99.90;;;;;;4953340;29;20027;-79
2021/11/30 02:44:46;;;;;;;9.68;6.00;;;5.10;99.90;;;;;;4951597;28;20078;-81
2021/11/30 02:47:14;;;;;;;13.43;6.88;;;5.10;99.90;;;;;;4952160;28;20070;-80
2021/11/30 02:49:42;;;;;;;12.70;7.03;;;5.20;99.90;;;;;;4956065;28;20050;-80
2021/11/30 02:52:14;;;;;;;17.63;7.28;;;5.10;99.90;;;;;;4952831;29;20030;-80
2021/11/30 02:54:41;;;;;;;;;;;5.20;99.90;;;;;;4954499;28;20150;-80
2021/11/30 02:57:08;;;;;;;11.85;7.13;;;5.10;99.90;;;;;;4953353;29;19914;-83
2021/11/30 02:59:37;;;;;;;10.80;6.32;;;5.10;99.90;;;;;;4952384;29;20075;-81
2021/11/30 03:02:15;;;;;;;13.50;7.22;;;5.10;99.90;;;;;;4953621;28;20055;-81
2021/11/30 03:04:43;;;;;;;15.02;7.35;;;5.20;99.90;;;;;;4953263;28;20074;-79
2021/11/30 03:07:15;;;;;;;13.40;7.38;;;5.20;99.90;;;;;;4952614;28;20027;-79
2021/11/30 03:09:41;;;;;;;11.30;6.40;;;5.20;99.90;;;;;;4952982;28;20117;-80
2021/11/30 03:12:07;;;;;;;8.80;7.05;;;5.20;99.90;;;;;;4952176;28;20555;-80
2021/11/30 03:14:33;;;;;;;10.95;6.47;;;5.20;99.90;;;;;;4951924;29;20757;-81
2021/11/30 03:16:59;;;;;;;14.45;8.00;;;5.20;99.90;;;;;;4951404;29;20496;-80
2021/11/30 03:19:27;;;;;;;10.52;6.97;;;5.20;99.90;;;;;;4951746;29;20439;-81
2021/11/30 03:21:54;;;;;;;11.15;7.65;;;5.20;99.90;;;;;;4953066;28;20047;-80
2021/11/30 03:24:19;;;;;;;10.60;7.72;;;5.30;99.90;;;;;;4953068;28;20082;-80
2021/11/30 03:26:45;;;;;;;9.57;7.15;;;5.30;99.90;;;;;;4952122;29;20027;-79
2021/11/30 03:29:11;;;;;;;10.45;7.30;;;5.30;99.90;;;;;;4952514;29;20023;-80
2021/11/30 03:34:09;;;;;;;10.07;7.35;;;5.30;99.90;;;;;;4953687;28;20063;-80
2021/11/30 03:36:36;;;;;;;11.50;7.82;;;5.30;99.90;;;;;;4952733;28;20023;-79
2021/11/30 03:39:06;;;;;;;7.70;6.90;;;5.30;99.90;;;;;;4952752;29;20031;-81
2021/11/30 03:41:33;;;;;;;10.75;7.40;;;5.30;99.90;;;;;;4953122;28;20054;-81
2021/11/30 03:44:00;;;;;;;10.43;7.65;;;5.30;99.90;;;;;;4956561;29;20472;-80
2021/11/30 03:46:25;;;;;;;10.05;7.95;;;5.30;99.90;;;;;;4956537;29;20023;-79
2021/11/30 03:48:51;;;;;;;9.43;7.50;;;5.40;99.90;;;;;;4956253;28;20034;-78
2021/11/30 03:51:17;;;;;;;8.82;7.90;;;5.40;99.90;;;;;;4957027;28;20066;-78
2021/11/30 03:53:43;;;;;;;9.35;8.13;;;5.40;99.90;;;;;;4956733;28;20049;-79
2021/11/30 03:56:08;;;;;;;7.50;6.70;;;5.40;99.90;;;;;;4956975;29;20028;-79
2021/11/30 03:58:34;;;;;;;7.65;6.95;;;5.40;99.90;;;;;;4955641;28;20047;-79
2021/11/30 04:00:59;;;;;;;8.07;7.28;;;5.40;99.90;;;;;;4956307;28;20019;-78
2021/11/30 04:03:28;;;;;;;7.55;6.88;;;5.40;99.90;;;;;;4955493;28;20062;-79
2021/11/30 04:05:54;;;;;;;7.75;6.95;;;5.50;99.90;;;;;;4956415;28;20110;-79
2021/11/30 04:08:19;;;;;;;8.32;7.47;;;5.50;99.90;;;;;;4955478;28;20109;-79
2021/11/30 04:10:45;;;;;;;7.43;6.72;;;5.50;99.90;;;;;;4956178;28;20059;-79
2021/11/30 04:13:11;;;;;;;8.07;7.25;;;5.60;99.90;;;;;;4957327;29;20495;-79
2021/11/30 04:15:36;;;;;;;7.55;6.78;;;5.60;99.90;;;;;;4955337;29;20043;-79
2021/11/30 04:18:02;;;;;;;7.65;6.53;;;5.60;99.90;;;;;;4955804;29;20090;-79
2021/11/30 04:20:28;;;;;;;7.63;6.78;;;5.70;99.90;;;;;;4956862;29;20103;-79
2021/11/30 04:22:53;;;;;;;6.90;6.20;;;5.70;99.90;;;;;;4956773;28;20062;-79
2021/11/30 04:25:19;;;;;;;6.20;5.70;;;5.70;99.90;;;;;;4955742;29;20468;-79
2021/11/30 04:27:45;;;;;;;5.90;5.30;;;5.80;99.90;;;;;;4955958;29;20058;-78
2021/11/30 04:30:11;;;;;;;5.43;4.80;;;5.80;99.90;;;;;;4955419;28;20019;-79
2021/11/30 04:32:38;;;;;;;4.88;4.38;;;5.80;99.90;;;;;;4955720;29;20027;-78
2021/11/30 04:35:04;;;;;;;5.15;3.92;;;5.90;99.90;;;;;;4956129;28;20468;-79
2021/11/30 04:37:29;;;;;;;4.18;3.88;;;5.90;99.90;;;;;;4954728;28;20027;-78
2021/11/30 04:39:55;;;;;;;4.40;4.00;;;6.00;99.90;;;;;;4955579;29;20022;-79
2021/11/30 04:42:22;;;;;;;4.10;3.70;;;6.00;99.90;;;;;;4955691;28;20023;-80
2021/11/30 04:44:57;;;;;;;3.20;3.00;;;6.10;99.90;;;;;;4954863;28;20058;-78
2021/11/30 04:47:25;;;;;;;4.03;3.70;;;6.10;99.90;;;;;;4955686;29;20439;-79
2021/11/30 04:49:56;;;;;;;3.70;3.40;;;6.20;99.90;;;;;;4955464;28;20500;-78
2021/11/30 04:52:22;;;;;;;3.83;3.30;;;6.20;99.90;;;;;;4954312;28;20089;-78
2021/11/30 04:54:47;;;;;;;3.38;3.15;;;6.30;99.90;;;;;;4954745;28;20125;-78
2021/11/30 04:57:13;;;;;;;3.50;3.20;;;6.30;99.90;;;;;;4955375;29;20042;-77
2021/11/30 04:59:39;;;;;;;3.80;3.55;;;6.40;99.90;;;;;;4954849;29;20067;-81
2021/11/30 05:02:04;;;;;;;3.55;3.25;;;6.40;99.90;;;;;;4955506;28;20023;-77
2021/11/30 05:04:30;;;;;;;3.58;3.28;;;6.40;99.90;;;;;;4955491;28;20424;-78
2021/11/30 05:06:57;;;;;;;3.20;2.95;;;6.50;99.90;;;;;;4956643;28;20475;-78
2021/11/30 05:09:22;;;;;;;3.50;3.20;;;6.50;99.90;;;;;;4956505;28;20026;-77
2021/11/30 05:11:48;;;;;;;3.42;3.22;;;6.50;99.90;;;;;;4954686;28;20433;-78
2021/11/30 05:14:14;;;;;;;3.13;2.92;;;6.50;99.90;;;;;;4954931;29;20456;-77
2021/11/30 05:16:39;;;;;;;3.30;3.03;;;6.60;99.90;;;;;;4956146;29;20082;-76
2021/11/30 05:19:06;;;;;;;3.30;3.10;;;6.60;99.90;;;;;;4954310;28;20492;-78
2021/11/30 05:21:31;;;;;;;3.20;3.00;;;6.60;99.90;;;;;;4955891;28;20184;-78
2021/11/30 05:24:01;;;;;;;3.22;2.92;;;6.70;99.90;;;;;;4954976;28;20038;-77
2021/11/30 05:26:27;;;;;;;3.30;3.10;;;6.70;99.90;;;;;;4953873;29;20444;-77
2021/11/30 05:28:53;;;;;;;2.92;2.72;;;6.80;99.90;;;;;;4954875;29;20076;-77
2021/11/30 05:31:19;;;;;;;4.30;3.03;;;6.80;99.90;;;;;;4954769;28;20144;-77
2021/11/30 05:33:47;;;;;;;3.00;2.80;;;6.80;99.90;;;;;;4955323;28;20420;-77
2021/11/30 05:36:13;;;;;;;3.08;2.88;;;6.90;99.90;;;;;;4955980;28;20036;-79
2021/11/30 05:38:40;;;;;;;2.83;2.67;;;6.90;99.90;;;;;;4954771;28;20126;-78
2021/11/30 05:41:05;;;;;;;2.75;2.55;;;6.90;99.90;;;;;;4953789;28;20026;-77
2021/11/30 05:43:31;;;;;;;3.35;3.10;;;6.90;99.90;;;;;;4955583;28;20812;-78
2021/11/30 05:45:57;;;;;;;3.03;2.83;;;7.00;99.90;;;;;;4954560;28;20427;-77
2021/11/30 05:48:22;;;;;;;3.88;3.58;;;7.00;99.90;;;;;;4955026;29;20027;-76
2021/11/30 05:50:48;;;;;;;3.35;3.15;;;7.00;99.90;;;;;;4953895;28;20047;-76
2021/11/30 05:53:13;;;;;;;3.25;3.05;;;7.10;99.90;;;;;;4954322;28;20035;-78
2021/11/30 05:55:39;;;;;;;3.28;3.08;;;7.10;99.90;;;;;;4953596;29;20038;-76
2021/11/30 05:58:05;;;;;;;3.22;3.03;;;7.10;99.90;;;;;;4954184;29;20151;-77
2021/11/30 06:00:33;;;;;;;3.20;3.00;;;7.20;99.90;;;;;;4956582;28;20383;-77
2021/11/30 06:03:07;;;;;;;3.50;3.22;;;7.20;99.90;;;;;;4954385;28;20055;-77
2021/11/30 06:05:34;;;;;;;3.35;3.15;;;7.30;99.90;;;;;;4953278;28;20417;-74
2021/11/30 06:08:00;;;;;;;3.95;3.65;;;7.30;99.90;;;;;;4954490;28;20063;-74
2021/11/30 06:10:27;;;;;;;3.55;3.30;;;7.30;99.90;;;;;;4953844;29;20027;-76
2021/11/30 06:12:53;;;;;;;3.67;3.47;;;7.30;99.90;;;;;;4953994;28;20023;-76
2021/11/30 06:15:19;;;;;;;3.70;3.40;;;7.30;99.90;;;;;;4954584;28;20027;-75
2021/11/30 06:17:45;;;;;;;3.92;3.63;;;7.40;99.90;;;;;;4954891;29;20519;-76
2021/11/30 06:20:11;;;;;;;3.90;3.60;;;7.40;99.90;;;;;;4953512;28;20178;-77
2021/11/30 06:22:38;;;;;;;3.90;3.60;;;7.40;99.90;;;;;;4952946;28;20027;-76
2021/11/30 06:25:05;;;;;;;4.68;4.28;;;7.50;99.90;;;;;;4953112;28;20047;-78
2021/11/30 06:27:31;;;;;;;38.95;7.78;;;7.50;99.90;;;;;;4934476;29;20571;-76
2021/11/30 06:29:57;;;;;;;6.93;6.35;;;7.60;99.90;;;;;;4952110;28;20442;-75
2021/11/30 06:32:23;;;;;;;4.68;4.38;;;7.60;99.90;;;;;;4953774;28;20507;-75
2021/11/30 06:34:49;;;;;;;4.93;4.57;;;7.60;99.90;;;;;;4952890;28;20028;-78
2021/11/30 06:37:15;;;;;;;28.42;7.28;;;7.70;99.90;;;;;;4952610;28;20035;-78
2021/11/30 06:39:41;;;;;;;60.97;8.95;;;7.70;99.90;;;;;;4937059;29;20039;-75
2021/11/30 06:42:07;;;;;;;15.00;7.75;;;7.80;99.90;;;;;;4952076;28;20492;-76
2021/11/30 06:44:35;;;;;;;11.25;8.05;;;7.80;99.90;;;;;;4953883;28;20038;-75
2021/11/30 06:47:04;;;;;;;8.07;7.47;;;7.80;99.90;;;;;;4954839;28;20114;-76
2021/11/30 06:49:30;;;;;;;5.07;4.68;;;7.90;99.90;;;;;;4953095;28;20049;-77
2021/11/30 06:51:56;;;;;;;4.22;3.92;;;7.90;99.90;;;;;;4948968;28;20032;-76
2021/11/30 06:54:21;;;;;;;4.53;4.13;;;7.90;99.90;;;;;;4953732;28;20412;-76
2021/11/30 06:56:47;;;;;;;6.28;5.82;;;8.00;99.90;;;;;;4952244;28;20383;-76
2021/11/30 06:59:12;;;;;;;3.90;3.60;;;8.00;99.90;;;;;;4952518;29;20031;-78
2021/11/30 07:01:38;;;;;;;3.70;3.40;;;8.00;99.90;;;;;;4952887;28;20386;-77
2021/11/30 07:04:05;;;;;;;3.28;3.08;;;8.10;99.90;;;;;;4952948;28;20027;-78
2021/11/30 07:06:48;;;;;;;3.58;3.38;;;8.10;99.90;;;;;;4953224;28;20484;-76
2021/11/30 07:09:21;;;;;;;3.50;3.20;;;8.20;99.90;;;;;;4954579;28;20396;-85
2021/11/30 07:14:13;;;;;;;2.90;2.70;;;8.30;99.90;;;;;;4954364;28;20035;-82
2021/11/30 07:16:39;;;;;;;3.15;2.85;;;8.40;99.90;;;;;;4951804;28;20019;-80
2021/11/30 07:19:05;;;;;;;6.43;3.60;;;8.40;99.90;;;;;;4947498;28;20545;-81
2021/11/30 07:21:31;;;;;;;3.47;3.28;;;8.40;99.90;;;;;;4949801;28;20027;-82
2021/11/30 07:23:58;;;;;;;3.97;3.17;;;8.50;99.90;;;;;;4954253;28;20492;-82
2021/11/30 07:26:25;;;;;;;4.43;3.33;;;8.50;99.90;;;;;;4952022;28;20019;-82
2021/11/30 07:28:51;;;;;;;4.15;3.45;;;8.60;99.90;;;;;;4952883;29;20050;-81
2021/11/30 07:31:17;;;;;;;3.78;3.42;;;8.70;99.90;;;;;;4954535;28;20499;-76
2021/11/30 07:33:46;;;;;;;6.15;3.88;;;8.70;99.90;;;;;;4960081;28;20027;-75
2021/11/30 07:36:15;;;;;;;4.70;3.88;;;8.70;99.90;;;;;;4963192;28;20030;-77
2021/11/30 07:38:42;;;;;;;4.60;3.60;;;8.80;99.90;;;;;;4956190;28;20134;-74
2021/11/30 16:54:11;;;;;;;12.90;10.82;;;9.40;99.90;;;;;;5912412;23;20039;-78
2021/11/30 16:56:38;;;;;;;11.23;9.98;;;9.40;99.90;;;;;;4991244;28;20053;-73
2021/11/30 16:59:04;;;;;;;9.35;8.07;;;9.50;99.90;;;;;;5010520;28;20037;-75
2021/11/30 17:01:31;;;;;;;7.35;6.65;;;9.50;99.90;;;;;;5013543;28;20105;-78
2021/11/30 17:03:56;;;;;;;8.13;6.80;;;9.50;99.90;;;;;;5012344;28;20080;-77
2021/11/30 17:06:22;;;;;;;9.43;6.63;;;9.50;99.90;;;;;;5001535;28;20366;-77
2021/11/30 17:08:48;;;;;;;6.85;6.10;;;9.50;99.90;;;;;;4992225;28;20031;-77
2021/11/30 17:11:13;;;;;;;8.18;7.07;;;9.60;99.90;;;;;;4994042;28;20474;-77
2021/11/30 17:13:39;;;;;;;8.63;7.05;;;9.60;99.90;;;;;;4993505;28;20031;-76
2021/11/30 17:16:05;;;;;;;7.20;6.30;;;9.50;99.90;;;;;;5004088;28;20030;-77
2021/11/30 17:18:30;;;;;;;8.90;6.85;;;9.60;99.90;;;;;;5012647;28;20533;-77
2021/11/30 17:20:56;;;;;;;7.40;6.60;;;9.60;99.90;;;;;;5012931;28;20056;-76
2021/11/30 17:23:30;;;;;;;8.85;7.07;;;9.60;99.90;;;;;;5010194;28;20026;-77
2021/11/30 17:25:57;;;;;;;7.88;7.07;;;9.60;99.90;;;;;;5011737;28;20018;-77
2021/11/30 17:28:23;;;;;;;8.35;7.55;;;9.60;99.90;;;;;;4996258;28;20113;-75
2021/11/30 17:30:48;;;;;;;9.43;8.52;;;9.60;99.90;;;;;;4995788;28;20528;-78
2021/11/30 17:33:14;;;;;;;16.80;14.60;;;9.70;99.90;;;;;;4989407;28;20033;-76
2021/11/30 17:35:40;;;;;;;16.38;14.10;;;9.60;99.90;;;;;;5010002;28;20485;-79
2021/11/30 17:38:05;;;;;;;16.40;13.70;;;9.70;99.90;;;;;;5004826;28;20124;-77
2021/11/30 17:40:31;;;;;;;15.88;13.20;;;9.60;99.90;;;;;;4988860;28;20530;-76
2021/11/30 17:43:01;;;;;;;13.73;12.32;;;9.60;99.90;;;;;;4996620;28;20030;-76
2021/11/30 17:45:31;;;;;;;14.25;12.73;;;9.70;99.90;;;;;;5004173;28;20053;-75
2021/11/30 17:47:57;;;;;;;13.02;11.65;;;9.70;99.90;;;;;;5010863;28;20326;-77
2021/11/30 17:50:23;;;;;;;14.35;12.85;;;9.60;99.90;;;;;;5009417;28;20036;-76
2021/11/30 17:52:49;;;;;;;13.35;11.65;;;9.60;99.90;;;;;;4997541;28;20026;-78
2021/11/30 17:55:15;;;;;;;12.40;11.00;;;9.70;99.90;;;;;;4989253;28;20146;-77
2021/11/30 17:57:41;;;;;;;10.00;9.00;;;9.70;99.90;;;;;;4990609;28;20030;-75
2021/11/30 18:00:09;;;;;;;11.27;10.07;;;9.70;99.90;;;;;;4987950;28;20042;-75
2021/11/30 18:02:37;;;;;;;9.52;8.63;;;9.70;99.90;;;;;;4989334;28;20026;-75
2021/11/30 18:05:04;;;;;;;21.67;11.07;;;9.70;99.90;;;;;;4989553;28;20504;-77
2021/11/30 18:07:31;;;;;;;11.85;10.65;;;9.70;99.90;;;;;;4996877;28;20064;-75
2021/11/30 18:09:57;;;;;;;11.52;10.38;;;9.70;99.90;;;;;;5009249;28;20053;-74
2021/11/30 18:12:22;;;;;;;12.07;10.30;;;9.70;99.90;;;;;;5008992;28;20030;-74
2021/11/30 18:14:48;;;;;;;10.68;9.57;;;9.70;99.90;;;;;;5001257;28;20441;-75
2021/11/30 18:17:14;;;;;;;13.03;11.73;;;9.70;99.90;;;;;;5007990;28;20034;-76
2021/11/30 18:19:40;;;;;;;11.60;10.40;;;9.70;99.90;;;;;;5007391;28;20390;-75
2021/11/30 18:22:06;;;;;;;11.25;10.15;;;9.70;99.90;;;;;;5009881;28;20026;-75
2021/11/30 18:24:34;;;;;;;10.73;9.63;;;9.70;99.90;;;;;;4994435;28;20539;-75
2021/11/30 18:26:59;;;;;;;10.88;9.77;;;9.70;99.90;;;;;;4989332;28;20117;-74
2021/11/30 18:29:26;;;;;;;10.52;9.52;;;9.70;99.90;;;;;;4988244;28;20125;-74
2021/11/30 18:31:52;;;;;;;10.98;9.88;;;9.70;99.90;;;;;;4988615;28;20030;-74
2021/11/30 18:34:18;;;;;;;15.23;13.07;;;9.70;99.90;;;;;;4990000;28;20474;-75
2021/11/30 18:36:44;;;;;;;16.23;13.15;;;9.70;99.90;;;;;;4988467;28;20023;-76
2021/11/30 18:39:10;;;;;;;15.05;11.73;;;9.70;99.90;;;;;;4988565;28;20034;-77
2021/11/30 18:41:37;;;;;;;12.07;10.77;;;9.70;99.90;;;;;;4987344;28;20029;-78
2021/11/30 18:44:06;;;;;;;13.68;11.52;;;9.80;99.90;;;;;;5005780;28;20061;-78
2021/11/30 18:46:31;;;;;;;12.98;10.93;;;9.80;99.90;;;;;;5006828;28;20061;-79
2021/11/30 18:48:57;;;;;;;11.65;9.98;;;9.80;99.90;;;;;;5003738;28;20069;-79
2021/11/30 18:51:23;;;;;;;10.73;9.43;;;9.80;99.90;;;;;;5008681;28;20029;-78
2021/11/30 18:53:50;;;;;;;9.25;7.88;;;9.80;99.90;;;;;;4987316;28;20081;-75
2021/11/30 18:56:18;;;;;;;9.32;8.32;;;9.80;99.90;;;;;;4985995;28;20191;-73
2021/11/30 18:58:45;;;;;;;8.93;8.02;;;9.80;99.90;;;;;;4987441;28;20085;-74
2021/11/30 19:01:12;;;;;;;8.13;7.30;;;9.80;99.90;;;;;;4988540;28;20117;-74
2021/11/30 19:03:37;;;;;;;14.60;12.27;;;9.90;99.90;;;;;;4987130;28;20035;-74
2021/11/30 19:06:04;;;;;;;19.30;17.25;;;9.90;99.90;;;;;;4990850;28;20466;-74
2021/11/30 19:08:29;;;;;;;20.27;16.75;;;9.90;99.90;;;;;;4988093;28;20030;-74
2021/11/30 19:10:57;;;;;;;19.55;17.45;;;9.90;99.90;;;;;;4987807;28;20556;-74
2021/11/30 19:13:28;;;;;;;13.88;12.43;;;9.80;99.90;;;;;;4986846;28;20486;-74
2021/11/30 19:15:55;;;;;;;11.45;10.25;;;9.90;99.90;;;;;;4988927;28;20073;-74
2021/11/30 19:18:22;;;;;;;10.93;9.90;;;9.80;99.90;;;;;;4987803;28;20038;-75
2021/11/30 19:20:48;;;;;;;11.32;10.13;;;9.90;99.90;;;;;;4995912;28;20078;-74
2021/11/30 19:23:16;;;;;;;9.90;9.00;;;9.90;99.90;;;;;;5008157;28;20041;-74
2021/11/30 19:25:43;;;;;;;10.65;9.55;;;9.90;99.90;;;;;;5006473;28;20018;-73
2021/11/30 19:28:10;;;;;;;10.02;9.10;;;9.90;99.90;;;;;;5008291;28;20080;-74
2021/11/30 19:30:36;;;;;;;11.73;10.02;;;9.90;99.90;;;;;;5005347;28;20010;-74
2021/11/30 19:33:03;;;;;;;9.95;9.05;;;9.90;99.90;;;;;;5006858;28;20101;-75
2021/11/30 19:35:30;;;;;;;10.50;9.50;;;9.90;99.90;;;;;;4988452;28;20026;-77
2021/11/30 19:37:59;;;;;;;10.07;9.18;;;9.90;99.90;;;;;;4986777;28;20129;-74
2021/11/30 19:40:27;;;;;;;10.38;9.30;;;10.00;99.90;;;;;;4988665;28;20093;-75
2021/11/30 19:42:55;;;;;;;10.52;9.15;;;10.00;99.90;;;;;;4986994;28;20052;-74
2021/11/30 19:45:22;;;;;;;10.30;9.30;;;10.00;99.90;;;;;;4989025;28;20050;-75
2021/11/30 19:47:48;;;;;;;12.40;11.10;;;10.00;99.90;;;;;;4988589;28;20019;-74
2021/11/30 19:50:14;;;;;;;13.88;11.98;;;10.00;99.90;;;;;;4988580;28;20054;-75
2021/11/30 19:52:40;;;;;;;13.02;11.63;;;10.00;99.90;;;;;;4999089;28;20026;-74
2021/11/30 19:55:07;;;;;;;11.63;10.43;;;10.00;99.90;;;;;;5005091;28;20056;-75
2021/11/30 19:57:34;;;;;;;12.27;11.05;;;10.00;99.90;;;;;;4989526;28;20068;-74
2021/11/30 20:00:08;;;;;;;13.88;10.88;;;10.10;99.90;;;;;;5008096;28;20083;-75
2021/11/30 20:05:20;;;;;;;13.40;12.10;;;10.00;99.90;;;;;;4993474;28;20057;-74
2021/11/30 20:07:48;;;;;;;14.55;12.30;;;10.00;99.90;;;;;;4986837;28;20081;-73
2021/11/30 20:10:14;;;;;;;14.18;12.70;;;10.10;99.90;;;;;;4993152;28;20030;-74
2021/11/30 20:12:40;;;;;;;13.57;12.20;;;10.10;99.90;;;;;;5007423;28;20457;-74
2021/11/30 20:15:23;;;;;;;49.90;15.20;;;10.10;99.90;;;;;;5006964;28;20041;-74
2021/11/30 20:17:58;;;;;;;17.83;15.27;;;10.10;99.90;;;;;;5006461;28;20026;-73
2021/11/30 20:20:25;;;;;;;17.27;15.60;;;10.10;99.90;;;;;;5006429;28;20478;-75
2021/11/30 20:22:51;;;;;;;19.13;16.27;;;10.10;99.90;;;;;;5008375;28;20030;-75
2021/11/30 20:25:18;;;;;;;19.92;17.92;;;10.10;99.90;;;;;;5010428;28;20401;-76
2021/11/30 20:27:45;;;;;;;20.58;18.20;;;10.10;99.90;;;;;;5001049;28;20026;-79
2021/11/30 20:30:11;;;;;;;21.25;18.45;;;10.10;99.90;;;;;;4999803;28;20037;-78
2021/11/30 20:32:37;;;;;;;17.17;15.57;;;10.10;99.90;;;;;;5011858;28;20026;-76
2021/11/30 20:35:25;;;;;;;19.00;16.80;;;10.10;99.90;;;;;;5014757;28;20377;-77
2021/11/30 20:40:37;;;;;;;20.00;16.27;;;10.10;99.90;;;;;;5010759;28;20165;-80
2021/11/30 20:43:08;;;;;;;18.60;16.35;;;10.10;99.90;;;;;;4997474;28;20045;-78
2021/11/30 20:45:36;;;;;;;16.75;14.98;;;10.10;99.90;;;;;;4997149;28;20022;-77
2021/11/30 20:48:03;;;;;;;17.33;15.68;;;10.10;99.90;;;;;;4997116;28;20034;-80
2021/11/30 20:50:28;;;;;;;21.10;18.05;;;10.10;99.90;;;;;;4997551;28;20030;-79
2021/11/30 20:52:54;;;;;;;21.70;18.73;;;10.10;99.90;;;;;;5004089;28;20090;-79
2021/11/30 20:55:20;;;;;;;32.97;26.70;;;10.10;99.90;;;;;;5012792;28;20042;-79
2021/11/30 20:57:45;;;;;;;27.25;23.00;;;10.10;99.90;;;;;;5014526;28;20044;-80
2021/11/30 21:00:11;;;;;;;16.90;15.20;;;10.10;99.90;;;;;;5012429;28;20017;-80
2021/11/30 21:02:38;;;;;;;17.63;15.80;;;10.10;99.90;;;;;;5005629;28;20027;-80
2021/11/30 21:05:08;;;;;;;15.15;13.65;;;10.10;99.90;;;;;;5007784;28;20109;-80
2021/11/30 21:07:38;;;;;;;14.48;13.00;;;10.10;99.90;;;;;;5012630;28;20030;-80
2021/11/30 21:10:11;;;;;;;15.13;13.50;;;10.10;99.90;;;;;;5012793;28;20018;-80
2021/11/30 21:12:38;;;;;;;22.77;18.25;;;10.10;99.90;;;;;;5013187;28;20405;-79
2021/11/30 21:15:06;;;;;;;17.45;14.90;;;10.10;99.90;;;;;;5012547;28;20065;-80
2021/11/30 21:17:34;;;;;;;17.25;13.95;;;10.10;99.90;;;;;;5013589;28;20034;-81
2021/11/30 21:20:02;;;;;;;17.50;14.13;;;10.10;99.90;;;;;;5013564;28;20026;-80
2021/11/30 21:22:28;;;;;;;20.80;16.00;;;10.10;99.90;;;;;;5012262;28;20029;-79
2021/11/30 21:24:53;;;;;;;22.40;16.52;;;10.10;99.90;;;;;;5013064;28;20061;-79
2021/11/30 21:27:20;;;;;;;20.23;15.68;;;10.10;99.90;;;;;;5012602;28;20049;-79
2021/11/30 21:29:45;;;;;;;20.73;16.33;;;10.10;99.90;;;;;;5013606;28;20080;-79
2021/11/30 21:32:11;;;;;;;18.55;16.52;;;10.10;99.90;;;;;;5014211;28;20470;-79
2021/11/30 21:34:38;;;;;;;18.27;15.05;;;10.10;99.90;;;;;;5011786;28;20474;-79
2021/11/30 21:37:05;;;;;;;18.55;14.70;;;10.10;99.90;;;;;;5012194;28;20018;-79
2021/11/30 21:39:31;;;;;;;19.30;15.45;;;10.10;99.90;;;;;;5005034;28;20034;-79
2021/11/30 21:41:58;;;;;;;15.30;13.73;;;10.10;99.90;;;;;;4993414;28;20018;-79
2021/11/30 21:44:24;;;;;;;19.52;15.38;;;10.20;99.90;;;;;;4993830;28;20034;-79
2021/11/30 21:46:50;;;;;;;22.33;17.10;;;10.20;99.90;;;;;;4998027;28;20023;-79
2021/11/30 21:49:17;;;;;;;19.48;16.23;;;10.10;99.90;;;;;;5006460;28;20036;-79
2021/11/30 21:51:44;;;;;;;21.38;16.38;;;10.20;99.90;;;;;;5012747;28;20018;-79
2021/11/30 21:54:14;;;;;;;19.40;16.27;;;10.20;99.90;;;;;;5012620;28;20045;-79
2021/11/30 21:56:40;;;;;;;17.08;14.98;;;10.20;99.90;;;;;;5010071;28;20046;-80
2021/11/30 21:59:06;;;;;;;17.88;15.27;;;10.20;99.90;;;;;;4994759;28;20088;-80
2021/11/30 22:01:32;;;;;;;17.20;14.68;;;10.20;99.90;;;;;;5008227;28;20025;-81
2021/11/30 22:03:57;;;;;;;16.55;14.85;;;10.20;99.90;;;;;;5013610;28;20037;-79
2021/11/30 22:06:23;;;;;;;16.63;15.00;;;10.10;99.90;;;;;;5011651;28;20113;-80
2021/11/30 22:08:49;;;;;;;15.63;14.02;;;10.20;99.90;;;;;;5013306;28;20033;-81
2021/11/30 22:11:14;;;;;;;16.80;14.35;;;10.20;99.90;;;;;;5012688;28;20390;-80
2021/11/30 22:13:40;;;;;;;20.38;15.15;;;10.20;99.90;;;;;;5012541;28;21097;-81